createdAt,value
2022-12-31T00:00:00.911Z,12.00
2022-12-31T00:02:27.960Z,12.10
2022-12-31T00:04:55.211Z,12.10
2022-12-31T00:07:22.101Z,12.10
2022-12-31T00:09:48.916Z,12.10
2022-12-31T00:12:15.757Z,12.10
2022-12-31T00:14:42.427Z,12.20
2022-12-31T00:17:09.227Z,12.20
2022-12-31T00:19:36.080Z,12.20
2022-12-31T00:22:02.936Z,12.10
2022-12-31T00:24:31.182Z,12.10
2022-12-31T00:26:58.017Z,12.10
2022-12-31T00:29:24.914Z,12.10
2022-12-31T00:31:51.738Z,12.10
2022-12-31T00:34:18.549Z,12.20
2022-12-31T00:36:46.134Z,12.20
2022-12-31T00:39:13.001Z,12.20
2022-12-31T00:41:40.147Z,12.20
2022-12-31T00:44:06.946Z,12.20
2022-12-31T00:49:00.480Z,12.20
2022-12-31T00:51:27.827Z,12.40
2022-12-31T00:53:59.993Z,12.40
2022-12-31T00:56:29.119Z,12.40
2022-12-31T00:58:56.252Z,12.40
2022-12-31T01:01:26.197Z,12.50
2022-12-31T01:03:56.108Z,12.50
2022-12-31T01:06:23.510Z,12.50
2022-12-31T01:08:51.552Z,12.50
2022-12-31T01:11:19.337Z,12.50
2022-12-31T01:13:47.217Z,12.50
2022-12-31T01:16:15.326Z,12.60
2022-12-31T01:18:42.257Z,12.60
2022-12-31T01:21:11.251Z,12.60
2022-12-31T01:23:38.599Z,12.70
2022-12-31T01:26:08.145Z,12.70
2022-12-31T01:28:35.647Z,12.70
2022-12-31T01:31:14.120Z,12.70
2022-12-31T01:33:41.834Z,12.80
2022-12-31T01:36:25.684Z,12.80
2022-12-31T01:38:54.434Z,12.90
2022-12-31T01:41:24.460Z,12.90
2022-12-31T01:43:55.418Z,12.90
2022-12-31T01:46:46.736Z,13.00
2022-12-31T01:49:30.938Z,12.90
2022-12-31T01:52:04.563Z,13.00
2022-12-31T01:54:34.985Z,13.10
2022-12-31T01:57:02.189Z,13.00
2022-12-31T01:59:29.951Z,13.00
2022-12-31T02:01:58.130Z,12.90
2022-12-31T02:04:26.588Z,12.90
2022-12-31T02:07:05.250Z,13.00
2022-12-31T02:09:33.319Z,13.00
2022-12-31T02:12:00.409Z,13.00
2022-12-31T02:14:33.893Z,13.00
2022-12-31T02:17:09.136Z,13.10
2022-12-31T02:20:14.052Z,13.10
2022-12-31T02:23:03.325Z,13.10
2022-12-31T02:25:55.180Z,13.10
2022-12-31T02:28:55.191Z,13.10
2022-12-31T02:31:42.786Z,13.10
2022-12-31T02:34:17.062Z,13.20
2022-12-31T02:36:46.860Z,13.20
2022-12-31T02:39:14.777Z,13.20
2022-12-31T02:41:50.765Z,13.30
2022-12-31T02:44:26.853Z,13.20
2022-12-31T02:47:08.747Z,13.10
2022-12-31T02:50:14.543Z,13.20
2022-12-31T02:53:26.673Z,13.20
2022-12-31T02:56:07.061Z,13.20
2022-12-31T02:59:16.953Z,13.30
2022-12-31T03:38:23.826Z,13.30
2022-12-31T03:40:53.058Z,13.40
2022-12-31T03:43:20.777Z,13.50
2022-12-31T03:45:52.726Z,13.50
2022-12-31T03:48:21.514Z,13.40
2022-12-31T03:50:48.686Z,13.50
2022-12-31T03:58:17.597Z,13.50
2022-12-31T04:00:44.455Z,13.50
2022-12-31T04:03:11.324Z,13.50
2022-12-31T04:05:39.411Z,13.50
2022-12-31T04:08:06.198Z,13.50
2022-12-31T04:10:33.049Z,13.50
2022-12-31T04:13:02.564Z,13.70
2022-12-31T04:15:29.390Z,13.70
2022-12-31T04:17:56.128Z,13.80
2022-12-31T04:20:22.991Z,13.80
2022-12-31T04:22:49.828Z,13.80
2022-12-31T04:25:16.818Z,13.90
2022-12-31T04:27:44.168Z,13.90
2022-12-31T04:30:12.499Z,14.00
2022-12-31T04:32:40.047Z,14.00
2022-12-31T04:35:07.572Z,14.10
2022-12-31T04:37:34.728Z,14.10
2022-12-31T04:40:05.913Z,14.10
2022-12-31T04:42:33.503Z,14.30
2022-12-31T04:45:00.307Z,14.30
2022-12-31T04:47:27.190Z,14.30
2022-12-31T04:49:53.929Z,14.30
2022-12-31T04:52:20.990Z,14.40
2022-12-31T04:54:47.822Z,14.40
2022-12-31T04:57:14.627Z,14.30
2022-12-31T04:59:41.378Z,14.40
2022-12-31T05:02:08.555Z,14.40
2022-12-31T05:04:35.543Z,14.30
2022-12-31T05:07:02.342Z,14.30
2022-12-31T05:09:29.762Z,14.30
2022-12-31T05:11:56.604Z,14.30
2022-12-31T05:14:23.491Z,14.20
2022-12-31T05:16:50.723Z,14.10
2022-12-31T05:19:17.638Z,14.00
2022-12-31T05:22:04.598Z,13.90
2022-12-31T05:24:31.867Z,13.90
2022-12-31T05:26:58.642Z,13.90
2022-12-31T05:29:25.467Z,14.00
2022-12-31T05:31:53.341Z,14.00
2022-12-31T05:34:20.499Z,14.10
2022-12-31T05:36:47.328Z,14.10
2022-12-31T05:39:14.147Z,14.20
2022-12-31T05:41:40.910Z,14.20
2022-12-31T05:44:07.659Z,14.20
2022-12-31T05:46:34.500Z,14.20
2022-12-31T05:49:01.410Z,14.20
2022-12-31T05:51:28.218Z,14.20
2022-12-31T05:53:54.954Z,14.10
2022-12-31T05:56:21.871Z,14.10
2022-12-31T05:58:48.626Z,14.10
2022-12-31T06:01:15.488Z,14.10
2022-12-31T06:03:42.386Z,14.10
2022-12-31T06:06:09.294Z,14.20
2022-12-31T06:08:36.080Z,14.30
2022-12-31T06:11:02.960Z,14.30
2022-12-31T06:13:30.079Z,14.20
2022-12-31T06:15:56.901Z,14.30
2022-12-31T06:18:23.722Z,14.20
2022-12-31T06:20:50.696Z,14.20
2022-12-31T06:23:17.437Z,14.20
2022-12-31T06:25:44.209Z,14.30
2022-12-31T06:28:19.499Z,14.30
2022-12-31T06:30:47.369Z,14.40
2022-12-31T06:33:14.357Z,14.40
2022-12-31T06:35:41.144Z,14.50
2022-12-31T06:38:07.916Z,14.60
2022-12-31T06:40:37.502Z,14.60
2022-12-31T06:43:05.833Z,14.70
2022-12-31T06:45:32.658Z,14.70
2022-12-31T06:47:59.439Z,14.80
2022-12-31T06:50:26.185Z,14.80
2022-12-31T06:52:53.834Z,14.80
2022-12-31T06:55:21.170Z,14.90
2022-12-31T06:57:48.337Z,14.90
2022-12-31T07:00:15.721Z,15.00
2022-12-31T07:03:01.739Z,14.90
2022-12-31T07:05:46.658Z,14.90
2022-12-31T07:08:42.817Z,14.90
2022-12-31T07:11:20.440Z,15.00
2022-12-31T07:13:58.545Z,15.00
2022-12-31T07:16:56.357Z,15.00
2022-12-31T07:19:32.164Z,15.10
2022-12-31T07:21:59.941Z,15.00
2022-12-31T07:24:27.155Z,15.00
2022-12-31T07:27:21.117Z,15.00
2022-12-31T07:30:12.665Z,15.00
2022-12-31T07:33:07.264Z,15.00
2022-12-31T07:35:48.945Z,15.00
2022-12-31T07:38:29.652Z,15.00
2022-12-31T07:41:23.531Z,15.00
2022-12-31T07:44:15.023Z,15.00
2022-12-31T07:47:03.378Z,15.00
2022-12-31T07:49:31.722Z,15.00
2022-12-31T07:51:59.082Z,14.90
2022-12-31T07:54:25.902Z,14.90
2022-12-31T07:56:52.694Z,14.80
2022-12-31T07:59:40.545Z,14.70
2022-12-31T08:02:25.625Z,14.70
2022-12-31T08:04:58.198Z,14.60
2022-12-31T08:07:43.544Z,14.70
2022-12-31T08:10:43.673Z,14.70
2022-12-31T08:13:12.525Z,14.70
2022-12-31T08:15:40.350Z,14.80
2022-12-31T08:18:08.000Z,14.80
2022-12-31T08:20:43.337Z,14.90
2022-12-31T08:23:39.690Z,14.90
2022-12-31T08:26:36.543Z,15.00
2022-12-31T08:29:14.116Z,15.00
2022-12-31T08:32:01.689Z,15.10
2022-12-31T08:35:01.048Z,15.20
2022-12-31T08:37:39.830Z,15.30
2022-12-31T08:40:19.824Z,15.30
2022-12-31T08:43:16.499Z,15.40
2022-12-31T08:45:51.099Z,15.40
2022-12-31T08:48:48.478Z,15.50
2022-12-31T08:51:23.100Z,15.50
2022-12-31T08:53:53.155Z,15.60
2022-12-31T08:56:40.235Z,15.60
2022-12-31T08:59:10.036Z,15.70
2022-12-31T09:02:18.029Z,15.80
2022-12-31T09:05:08.771Z,15.80
2022-12-31T09:07:41.632Z,15.80
2022-12-31T09:10:44.136Z,15.90
2022-12-31T09:14:00.301Z,15.90
2022-12-31T09:16:36.033Z,15.90
2022-12-31T09:19:03.074Z,15.90
2022-12-31T09:21:31.528Z,15.90
2022-12-31T09:24:05.841Z,15.90
2022-12-31T09:27:10.875Z,16.00
2022-12-31T09:29:40.685Z,16.00
2022-12-31T09:32:10.489Z,16.00
2022-12-31T09:34:46.938Z,16.10
2022-12-31T09:37:36.762Z,16.10
2022-12-31T09:40:28.697Z,16.10
2022-12-31T09:43:20.324Z,16.20
2022-12-31T09:45:58.759Z,16.10
2022-12-31T09:48:43.693Z,16.10
2022-12-31T09:51:29.898Z,16.20
2022-12-31T09:54:05.359Z,16.20
2022-12-31T09:56:38.469Z,16.20
2022-12-31T09:59:27.345Z,16.20
2022-12-31T10:02:00.819Z,16.20
2022-12-31T10:04:39.633Z,16.20
2022-12-31T10:07:32.589Z,16.20
2022-12-31T10:10:22.591Z,16.20
2022-12-31T10:13:12.772Z,16.30
2022-12-31T10:16:05.530Z,16.30
2022-12-31T10:18:59.803Z,16.30
2022-12-31T10:21:54.198Z,16.30
2022-12-31T10:24:34.371Z,16.40
2022-12-31T10:27:33.961Z,16.40
2022-12-31T10:30:13.593Z,16.40
2022-12-31T10:32:49.886Z,16.50
2022-12-31T10:35:35.345Z,16.60
2022-12-31T10:38:34.357Z,16.60
2022-12-31T10:41:38.466Z,16.60
2022-12-31T10:45:03.080Z,16.60
2022-12-31T10:48:11.651Z,16.60
2022-12-31T10:50:59.963Z,16.70
2022-12-31T10:54:01.616Z,16.70
2022-12-31T10:57:01.242Z,16.60
2022-12-31T10:59:55.083Z,16.60
2022-12-31T11:02:40.701Z,16.60
2022-12-31T11:05:19.942Z,16.60
2022-12-31T11:08:10.580Z,16.50
2022-12-31T11:11:18.566Z,16.60
2022-12-31T11:14:11.680Z,16.60
2022-12-31T11:16:53.990Z,16.50
2022-12-31T11:19:39.008Z,16.50
2022-12-31T11:22:08.633Z,16.60
2022-12-31T11:25:00.403Z,16.50
2022-12-31T11:27:49.337Z,16.60
2022-12-31T11:30:47.694Z,16.50
2022-12-31T11:33:27.510Z,16.40
2022-12-31T11:36:36.334Z,16.50
2022-12-31T11:39:43.339Z,16.50
2022-12-31T11:42:28.881Z,16.50
2022-12-31T11:45:04.238Z,16.50
2022-12-31T11:51:02.311Z,16.50
2022-12-31T11:53:40.073Z,16.60
2022-12-31T11:56:31.589Z,16.60
2022-12-31T11:58:58.842Z,16.70
2022-12-31T12:02:04.676Z,16.70
2022-12-31T12:04:31.785Z,16.80
2022-12-31T12:06:58.712Z,16.80
2022-12-31T12:09:31.399Z,16.80
2022-12-31T12:12:00.874Z,16.90
2022-12-31T12:14:35.460Z,16.90
2022-12-31T12:17:05.460Z,17.00
2022-12-31T12:19:35.366Z,17.00
2022-12-31T12:22:31.906Z,17.00
2022-12-31T12:25:17.737Z,17.00
2022-12-31T12:27:44.741Z,16.90
2022-12-31T12:30:22.339Z,16.90
2022-12-31T12:32:59.119Z,17.00
2022-12-31T12:35:31.715Z,16.90
2022-12-31T12:38:03.261Z,16.90
2022-12-31T12:40:34.212Z,16.90
2022-12-31T12:43:02.443Z,16.90
2022-12-31T12:45:51.737Z,16.90
2022-12-31T12:48:31.550Z,16.90
2022-12-31T12:50:59.916Z,16.90
2022-12-31T12:53:47.119Z,16.90
2022-12-31T12:56:39.085Z,16.90
2022-12-31T12:59:40.118Z,16.90
2022-12-31T13:02:18.407Z,16.90
2022-12-31T13:05:26.114Z,16.90
2022-12-31T13:08:22.190Z,16.90
2022-12-31T13:11:15.538Z,17.00
2022-12-31T13:13:43.191Z,17.10
2022-12-31T13:16:23.736Z,17.10
2022-12-31T13:19:04.039Z,17.10
2022-12-31T13:21:44.769Z,17.00
2022-12-31T13:24:35.392Z,17.10
2022-12-31T13:27:27.259Z,17.00
2022-12-31T13:29:57.923Z,17.10
2022-12-31T13:32:35.357Z,17.10
2022-12-31T13:35:26.227Z,17.10
2022-12-31T13:38:05.070Z,17.10
2022-12-31T13:41:05.477Z,17.00
2022-12-31T13:44:10.467Z,17.00
2022-12-31T13:47:00.045Z,17.10
2022-12-31T13:49:40.187Z,17.10
2022-12-31T13:52:22.105Z,17.10
2022-12-31T13:55:10.463Z,17.10
2022-12-31T13:57:48.261Z,17.20
2022-12-31T14:00:25.471Z,17.20
2022-12-31T14:03:04.426Z,17.20
2022-12-31T14:05:58.643Z,17.10
2022-12-31T14:08:25.430Z,17.10
2022-12-31T14:11:23.791Z,17.00
2022-12-31T14:14:05.653Z,17.00
2022-12-31T14:16:35.474Z,16.90
2022-12-31T14:19:18.927Z,16.90
2022-12-31T14:22:07.106Z,16.90
2022-12-31T14:24:45.365Z,16.80
2022-12-31T14:27:20.654Z,16.80
2022-12-31T14:29:56.703Z,16.80
2022-12-31T14:32:50.138Z,16.70
2022-12-31T14:35:39.619Z,16.80
2022-12-31T14:38:28.692Z,16.80
2022-12-31T14:41:07.571Z,16.70
2022-12-31T14:43:48.234Z,16.70
2022-12-31T14:46:40.225Z,16.60
2022-12-31T14:49:42.907Z,16.60
2022-12-31T14:52:15.489Z,16.50
2022-12-31T14:54:42.946Z,16.50
2022-12-31T14:58:16.768Z,16.40
2022-12-31T15:00:34.311Z,16.40
2022-12-31T15:03:16.442Z,16.30
2022-12-31T15:06:02.129Z,16.20
2022-12-31T15:08:37.310Z,16.10
2022-12-31T15:11:36.258Z,16.10
2022-12-31T15:14:48.430Z,16.10
2022-12-31T15:17:53.051Z,16.10
2022-12-31T15:20:53.545Z,16.10
2022-12-31T15:23:23.881Z,16.10
2022-12-31T15:25:58.907Z,16.10
2022-12-31T15:28:38.294Z,16.10
2022-12-31T15:31:19.161Z,16.00
2022-12-31T15:34:01.294Z,16.00
2022-12-31T15:36:35.784Z,16.00
2022-12-31T15:39:05.676Z,16.00
2022-12-31T15:42:18.770Z,15.90
2022-12-31T15:44:50.591Z,15.90
2022-12-31T15:47:32.040Z,16.00
2022-12-31T15:50:07.297Z,15.90
2022-12-31T15:52:45.119Z,15.80
2022-12-31T15:55:33.893Z,15.80
2022-12-31T15:58:05.335Z,15.70
2022-12-31T16:01:09.976Z,15.60
2022-12-31T16:03:37.561Z,15.60
2022-12-31T16:06:12.477Z,15.70
2022-12-31T16:08:41.206Z,15.60
2022-12-31T16:11:10.067Z,15.60
2022-12-31T16:13:46.732Z,15.60
2022-12-31T16:16:26.254Z,15.60
2022-12-31T16:18:54.061Z,15.60
2022-12-31T16:21:33.402Z,15.70
2022-12-31T16:24:32.792Z,15.70
2022-12-31T16:27:07.318Z,15.80
2022-12-31T16:29:42.872Z,15.90
2022-12-31T16:32:18.134Z,15.90
2022-12-31T16:34:46.198Z,15.90
2022-12-31T16:37:19.508Z,15.90
2022-12-31T16:39:58.725Z,15.90
2022-12-31T16:42:29.550Z,15.80
2022-12-31T16:44:58.476Z,15.80
2022-12-31T16:47:36.066Z,15.80
2022-12-31T16:50:10.678Z,15.90
2022-12-31T16:52:41.335Z,16.00
2022-12-31T16:55:21.393Z,15.90
2022-12-31T16:57:54.266Z,16.00
2022-12-31T17:00:21.882Z,16.00
2022-12-31T17:03:07.609Z,16.10
2022-12-31T17:05:52.994Z,16.10
2022-12-31T17:08:39.681Z,16.10
2022-12-31T17:11:23.160Z,16.10
2022-12-31T17:14:06.185Z,16.00
2022-12-31T17:16:38.586Z,16.00
2022-12-31T17:19:06.676Z,16.00
2022-12-31T17:21:34.542Z,15.90
2022-12-31T17:24:04.369Z,15.90
2022-12-31T17:26:34.608Z,15.80
2022-12-31T17:29:02.881Z,15.90
2022-12-31T17:31:38.381Z,15.90
2022-12-31T17:34:14.183Z,15.90
2022-12-31T17:36:52.878Z,15.90
2022-12-31T17:39:22.866Z,15.90
2022-12-31T17:41:56.809Z,15.90
2022-12-31T17:44:28.092Z,15.90
2022-12-31T17:46:55.221Z,15.80
2022-12-31T17:49:30.240Z,15.80
2022-12-31T17:51:57.281Z,15.80
2022-12-31T17:54:24.028Z,15.70
2022-12-31T17:56:52.521Z,15.60
2022-12-31T17:59:23.228Z,15.70
2022-12-31T18:01:50.270Z,15.70
2022-12-31T18:04:19.089Z,15.80
2022-12-31T18:06:46.302Z,15.80
2022-12-31T18:09:13.077Z,15.70
2022-12-31T18:11:40.944Z,15.70
2022-12-31T18:14:10.579Z,15.50
2022-12-31T18:16:37.447Z,15.50
2022-12-31T18:19:23.727Z,15.50
2022-12-31T18:22:00.994Z,15.40
2022-12-31T18:24:28.077Z,15.40
2022-12-31T18:26:55.313Z,15.40
2022-12-31T18:29:22.516Z,15.40
2022-12-31T18:31:50.211Z,15.40
2022-12-31T18:34:18.513Z,15.40
2022-12-31T18:36:46.040Z,15.40
2022-12-31T18:39:13.656Z,15.40
2022-12-31T18:41:45.872Z,15.40
2022-12-31T18:44:14.381Z,15.50
2022-12-31T18:46:42.271Z,15.50
2022-12-31T18:49:09.627Z,15.60
2022-12-31T18:51:36.580Z,15.50
2022-12-31T18:54:05.058Z,15.50
2022-12-31T18:56:32.322Z,15.50
2022-12-31T18:58:59.897Z,15.50
2022-12-31T19:01:37.459Z,15.50
2022-12-31T19:04:26.618Z,15.50
2022-12-31T19:06:54.314Z,15.50
2022-12-31T19:09:44.042Z,15.50
2022-12-31T19:12:12.886Z,15.50
2022-12-31T19:14:39.848Z,15.50
2022-12-31T19:19:32.404Z,15.60
2022-12-31T19:21:59.202Z,15.60
2022-12-31T19:24:27.256Z,15.60
2022-12-31T19:26:55.466Z,15.60
2022-12-31T19:29:24.892Z,15.50
2022-12-31T19:31:51.983Z,15.50
2022-12-31T19:34:19.178Z,15.50
2022-12-31T19:36:46.434Z,15.40
2022-12-31T19:39:19.834Z,15.40
2022-12-31T19:41:51.680Z,15.40
2022-12-31T19:44:25.608Z,15.40
2022-12-31T19:46:52.510Z,15.40
2022-12-31T19:49:19.787Z,15.40
2022-12-31T19:51:46.633Z,15.40
2022-12-31T19:54:14.070Z,15.50
2022-12-31T19:56:40.991Z,15.50
2022-12-31T19:59:09.733Z,15.40
2022-12-31T20:01:37.409Z,15.40
2022-12-31T20:04:04.730Z,15.40
2022-12-31T20:06:34.890Z,15.40
2022-12-31T20:09:03.451Z,15.40
2022-12-31T20:11:30.559Z,15.40
2022-12-31T20:14:09.767Z,15.40
2022-12-31T20:16:39.663Z,15.50
2022-12-31T20:19:06.760Z,15.50
2022-12-31T20:21:33.639Z,15.60
2022-12-31T20:24:00.591Z,15.60
2022-12-31T20:26:27.603Z,15.70
2022-12-31T20:28:54.561Z,15.80
2022-12-31T20:31:24.873Z,15.90
2022-12-31T20:33:53.708Z,15.90
2022-12-31T20:36:21.423Z,15.90
2022-12-31T20:38:48.580Z,16.00
2022-12-31T20:41:21.037Z,16.00
2022-12-31T20:43:48.454Z,16.00
2022-12-31T20:46:27.497Z,16.00
2022-12-31T20:48:58.635Z,16.00
2022-12-31T20:51:27.323Z,16.00
2022-12-31T20:53:58.717Z,15.90
2022-12-31T20:56:28.396Z,15.90
2022-12-31T20:58:55.561Z,15.90
2022-12-31T21:01:25.264Z,15.80
2022-12-31T21:04:04.912Z,15.80
2022-12-31T21:06:32.906Z,15.70
2022-12-31T21:09:02.053Z,15.70
2022-12-31T21:11:47.559Z,15.60
2022-12-31T21:14:24.274Z,15.70
2022-12-31T21:16:54.311Z,15.70
2022-12-31T21:19:21.528Z,15.60
2022-12-31T21:21:51.958Z,15.60
2022-12-31T21:24:23.578Z,15.50
2022-12-31T21:26:55.386Z,15.50
2022-12-31T21:29:22.299Z,15.50
2022-12-31T21:31:49.901Z,15.50
2022-12-31T21:34:16.816Z,15.40
2022-12-31T21:36:43.748Z,15.40
2022-12-31T21:39:10.584Z,15.40
2022-12-31T21:41:52.595Z,15.20
2022-12-31T21:44:26.818Z,15.10
2022-12-31T21:47:42.540Z,15.00
2022-12-31T21:50:09.033Z,15.00
2022-12-31T21:52:35.982Z,15.00
2022-12-31T21:55:23.194Z,15.00
2022-12-31T21:58:24.734Z,15.00
2022-12-31T22:00:56.764Z,15.00
2022-12-31T22:03:29.749Z,15.00
2022-12-31T22:06:03.094Z,15.10
2022-12-31T22:08:30.771Z,15.10
2022-12-31T22:10:58.225Z,15.10
2022-12-31T22:13:25.154Z,15.00
2022-12-31T22:16:02.003Z,15.00
2022-12-31T22:18:34.128Z,14.90
2022-12-31T22:21:10.781Z,14.70
2022-12-31T22:23:43.358Z,14.60
2022-12-31T22:26:12.700Z,14.40
2022-12-31T22:28:41.290Z,14.40
2022-12-31T22:31:14.342Z,14.40
2022-12-31T22:33:42.243Z,14.20
2022-12-31T22:36:14.202Z,14.10
2022-12-31T22:38:41.679Z,14.00
2022-12-31T22:41:12.101Z,13.80
2022-12-31T22:43:43.968Z,13.60
2022-12-31T22:46:16.741Z,13.50
2022-12-31T22:48:43.762Z,13.40
2022-12-31T22:51:11.652Z,13.20
2022-12-31T22:53:41.273Z,13.20
2022-12-31T22:56:08.546Z,13.00
2022-12-31T22:58:36.063Z,13.00
2022-12-31T23:01:19.373Z,12.90
2022-12-31T23:03:47.955Z,12.90
2022-12-31T23:06:15.535Z,12.90
2022-12-31T23:09:02.563Z,12.90
2022-12-31T23:11:30.281Z,13.00
2022-12-31T23:14:15.423Z,13.20
2022-12-31T23:17:00.916Z,13.40
2022-12-31T23:20:06.164Z,13.50
2022-12-31T23:22:51.545Z,13.60
2022-12-31T23:25:18.482Z,13.60
2022-12-31T23:27:45.526Z,13.60
2022-12-31T23:30:13.120Z,13.60
2022-12-31T23:32:49.036Z,13.80
2022-12-31T23:35:15.996Z,14.00
2022-12-31T23:37:43.024Z,14.10
2022-12-31T23:40:12.344Z,14.10
2022-12-31T23:42:42.654Z,14.30
2022-12-31T23:45:09.740Z,14.30
2022-12-31T23:47:37.483Z,14.20
2022-12-31T23:50:05.227Z,14.00
2022-12-31T23:52:35.135Z,13.80
2022-12-31T23:55:03.758Z,13.50
2022-12-31T23:57:33.983Z,13.40
